createdAt,value
2022-12-03T00:01:36.422Z,10.63
2022-12-03T00:04:03.580Z,10.35
2022-12-03T00:06:34.526Z,10.80
2022-12-03T00:09:01.916Z,10.35
2022-12-03T00:11:36.744Z,11.40
2022-12-03T00:14:03.808Z,10.82
2022-12-03T00:16:31.074Z,12.38
2022-12-03T00:18:58.052Z,12.02
2022-12-03T00:21:30.048Z,12.45
2022-12-03T00:26:23.917Z,12.48
2022-12-03T00:28:51.497Z,11.73
2022-12-03T00:31:36.156Z,11.95
2022-12-03T00:34:03.438Z,11.80
2022-12-03T00:36:30.379Z,13.27
2022-12-03T00:38:59.521Z,11.75
2022-12-03T00:41:29.640Z,12.52
2022-12-03T00:44:02.509Z,11.77
2022-12-03T00:46:29.616Z,11.52
2022-12-03T00:49:02.425Z,12.32
2022-12-03T00:51:32.317Z,11.55
2022-12-03T00:54:06.117Z,12.98
2022-12-03T00:56:42.745Z,15.80
2022-12-03T00:59:12.254Z,18.25
2022-12-03T01:01:39.969Z,17.63
2022-12-03T01:04:11.407Z,13.93
2022-12-03T01:06:39.718Z,17.38
2022-12-03T01:09:06.683Z,14.90
2022-12-03T01:11:39.549Z,15.30
2022-12-03T01:14:19.717Z,14.45
2022-12-03T01:16:47.731Z,15.23
2022-12-03T01:19:16.398Z,15.68
2022-12-03T01:21:56.061Z,13.93
2022-12-03T01:24:28.559Z,12.80
2022-12-03T01:26:56.816Z,10.65
2022-12-03T01:29:24.386Z,10.35
2022-12-03T01:32:09.761Z,10.05
2022-12-03T01:34:36.957Z,9.73
2022-12-03T01:37:08.812Z,10.38
2022-12-03T01:42:03.709Z,10.60
2022-12-03T01:44:32.994Z,10.23
2022-12-03T01:47:03.234Z,10.68
2022-12-03T01:49:55.197Z,10.88
2022-12-03T01:52:29.356Z,9.75
2022-12-03T01:55:02.053Z,9.93
2022-12-03T01:57:35.554Z,9.57
2022-12-03T02:00:02.946Z,9.70
2022-12-03T02:02:33.041Z,10.27
2022-12-03T02:05:01.238Z,9.60
2022-12-03T02:07:33.832Z,10.20
2022-12-03T02:10:04.287Z,9.55
2022-12-03T02:12:37.189Z,10.20
2022-12-03T02:15:06.389Z,10.25
2022-12-03T02:17:33.948Z,10.75
2022-12-03T02:20:02.326Z,10.27
2022-12-03T02:22:40.584Z,9.88
2022-12-03T02:25:23.329Z,10.20
2022-12-03T02:27:59.010Z,10.05
2022-12-03T02:30:27.716Z,9.35
2022-12-03T02:32:58.977Z,9.82
2022-12-03T02:35:28.826Z,7.05
2022-12-03T02:38:06.475Z,10.18
2022-12-03T02:40:36.782Z,10.38
2022-12-03T02:43:05.933Z,10.27
2022-12-03T02:45:36.944Z,9.88
2022-12-03T02:48:20.476Z,10.00
2022-12-03T02:51:01.079Z,9.80
2022-12-03T02:53:32.175Z,10.20
2022-12-03T02:56:07.616Z,10.00
2022-12-03T02:58:35.026Z,9.80
2022-12-03T03:01:04.195Z,9.85
2022-12-03T03:03:33.321Z,10.50
2022-12-03T03:06:02.693Z,9.52
2022-12-03T03:08:33.072Z,10.10
2022-12-03T03:11:01.893Z,9.73
2022-12-03T03:13:31.095Z,9.73
2022-12-03T03:16:09.274Z,10.05
2022-12-03T03:18:36.605Z,10.48
2022-12-03T03:21:04.285Z,10.00
2022-12-03T03:23:31.406Z,10.20
2022-12-03T03:26:18.761Z,10.07
2022-12-03T03:28:49.085Z,9.63
2022-12-03T03:31:19.920Z,9.90
2022-12-03T03:33:48.166Z,9.95
2022-12-03T03:36:16.305Z,10.07
2022-12-03T03:38:46.951Z,10.32
2022-12-03T03:41:15.406Z,10.95
2022-12-03T03:43:44.368Z,10.38
2022-12-03T03:46:12.123Z,10.80
2022-12-03T03:48:40.480Z,11.63
2022-12-03T03:51:09.750Z,10.50
2022-12-03T03:53:43.643Z,11.23
2022-12-03T03:56:11.586Z,10.07
2022-12-03T03:58:42.394Z,11.00
2022-12-03T04:01:11.499Z,7.90
2022-12-03T04:03:39.967Z,11.38
2022-12-03T04:06:07.353Z,11.68
2022-12-03T04:08:34.314Z,10.48
2022-12-03T04:11:19.651Z,10.77
2022-12-03T04:13:46.596Z,10.70
2022-12-03T04:16:13.743Z,10.50
2022-12-03T04:18:43.361Z,10.20
2022-12-03T04:21:34.756Z,8.98
2022-12-03T04:24:02.724Z,5.60
2022-12-03T04:26:49.567Z,4.07
2022-12-03T04:29:24.301Z,4.40
2022-12-03T04:32:09.574Z,6.53
2022-12-03T04:34:57.183Z,6.70
2022-12-03T04:37:24.389Z,7.10
2022-12-03T04:39:51.394Z,6.95
2022-12-03T04:42:18.325Z,7.15
2022-12-03T04:44:45.425Z,7.15
2022-12-03T04:47:21.081Z,8.30
2022-12-03T04:49:51.682Z,7.78
2022-12-03T04:52:20.415Z,7.53
2022-12-03T04:54:47.561Z,8.30
2022-12-03T04:57:14.478Z,4.53
2022-12-03T04:59:44.186Z,3.60
2022-12-03T05:02:11.362Z,3.42
2022-12-03T05:04:38.300Z,2.67
2022-12-03T05:07:05.433Z,3.00
2022-12-03T05:09:32.776Z,2.70
2022-12-03T05:12:09.752Z,2.78
2022-12-03T05:14:36.918Z,3.22
2022-12-03T05:17:03.863Z,3.20
2022-12-03T05:19:49.134Z,3.30
2022-12-03T05:22:16.106Z,3.40
2022-12-03T05:24:42.919Z,3.50
2022-12-03T05:27:09.845Z,3.83
2022-12-03T05:29:39.621Z,4.60
2022-12-03T05:32:06.671Z,4.38
2022-12-03T05:34:33.575Z,3.47
2022-12-03T05:37:00.633Z,3.53
2022-12-03T05:39:27.539Z,3.97
2022-12-03T05:42:15.355Z,4.43
2022-12-03T05:44:42.460Z,4.25
2022-12-03T05:47:09.454Z,4.15
2022-12-03T05:49:37.396Z,3.70
2022-12-03T05:52:04.570Z,3.60
2022-12-03T05:54:31.485Z,4.20
2022-12-03T05:56:58.386Z,4.07
2022-12-03T05:59:25.270Z,3.78
2022-12-03T06:01:52.190Z,4.38
2022-12-03T06:04:19.174Z,4.60
2022-12-03T06:06:46.172Z,4.03
2022-12-03T06:09:13.402Z,4.35
2022-12-03T06:11:40.760Z,4.30
2022-12-03T06:14:10.355Z,4.00
2022-12-03T06:16:38.301Z,4.15
2022-12-03T06:19:05.268Z,4.50
2022-12-03T06:21:32.329Z,4.45
2022-12-03T06:24:03.317Z,4.75
2022-12-03T06:26:30.510Z,4.60
2022-12-03T06:28:57.513Z,4.28
2022-12-03T06:31:24.550Z,4.57
2022-12-03T06:33:51.556Z,4.72
2022-12-03T06:36:27.654Z,4.70
2022-12-03T06:38:55.080Z,4.47
2022-12-03T06:41:22.020Z,4.85
2022-12-03T06:43:49.063Z,5.05
2022-12-03T06:46:16.002Z,4.40
2022-12-03T06:48:43.134Z,4.60
2022-12-03T06:51:10.215Z,4.40
2022-12-03T06:53:37.253Z,4.30
2022-12-03T06:56:04.524Z,4.72
2022-12-03T06:58:31.474Z,4.40
2022-12-03T07:00:58.363Z,4.63
2022-12-03T07:03:25.399Z,4.30
2022-12-03T07:05:52.497Z,4.30
2022-12-03T07:08:19.488Z,4.95
2022-12-03T07:10:46.516Z,4.82
2022-12-03T07:13:13.663Z,4.40
2022-12-03T07:15:41.933Z,4.70
2022-12-03T07:18:09.006Z,4.93
2022-12-03T07:20:36.071Z,4.40
2022-12-03T07:23:04.028Z,4.30
2022-12-03T07:25:31.143Z,3.83
2022-12-03T07:27:58.091Z,4.32
2022-12-03T07:30:28.767Z,5.00
2022-12-03T07:32:57.346Z,5.57
2022-12-03T07:35:24.274Z,4.78
2022-12-03T07:37:51.277Z,4.55
2022-12-03T07:40:18.384Z,4.15
2022-12-03T07:42:45.506Z,4.38
2022-12-03T07:45:12.705Z,3.80
2022-12-03T07:47:39.599Z,4.57
2022-12-03T07:50:07.263Z,4.53
2022-12-03T07:52:34.325Z,4.60
2022-12-03T07:55:01.834Z,4.63
2022-12-03T07:57:28.805Z,3.80
2022-12-03T07:59:55.686Z,3.53
2022-12-03T08:02:22.987Z,3.70
2022-12-03T08:04:52.783Z,4.20
2022-12-03T08:07:19.862Z,3.50
2022-12-03T08:09:47.043Z,4.03
2022-12-03T08:12:17.724Z,24.48
2022-12-03T08:14:52.742Z,6.40
2022-12-03T08:17:28.873Z,3.95
2022-12-03T08:19:56.130Z,4.20
2022-12-03T08:22:23.259Z,3.78
2022-12-03T08:24:53.648Z,3.90
2022-12-03T08:27:21.202Z,5.18
2022-12-03T08:29:48.210Z,4.10
2022-12-03T08:32:15.168Z,3.35
2022-12-03T08:34:49.234Z,3.75
2022-12-03T08:37:18.721Z,3.53
2022-12-03T08:39:48.542Z,3.17
2022-12-03T08:42:46.677Z,3.60
2022-12-03T08:45:39.698Z,3.30
2022-12-03T08:48:34.630Z,2.90
2022-12-03T08:51:15.438Z,3.35
2022-12-03T08:53:46.576Z,3.15
2022-12-03T08:56:31.314Z,3.35
2022-12-03T08:59:00.711Z,2.42
2022-12-03T09:01:31.823Z,3.58
2022-12-03T09:04:30.910Z,3.22
2022-12-03T09:06:58.343Z,3.35
2022-12-03T09:09:26.120Z,6.05
2022-12-03T09:11:53.990Z,2.67
2022-12-03T09:14:23.962Z,2.70
2022-12-03T09:16:55.965Z,3.72
2022-12-03T09:19:31.168Z,2.80
2022-12-03T09:24:27.190Z,3.40
2022-12-03T09:26:54.799Z,2.72
2022-12-03T09:29:22.696Z,2.88
2022-12-03T09:31:49.841Z,3.00
2022-12-03T09:34:18.272Z,3.05
2022-12-03T09:36:47.707Z,2.63
2022-12-03T09:39:16.494Z,2.70
2022-12-03T09:41:46.719Z,2.45
2022-12-03T09:44:17.967Z,2.70
2022-12-03T09:46:46.532Z,2.70
2022-12-03T09:49:16.677Z,3.13
2022-12-03T09:51:45.586Z,2.47
2022-12-03T09:57:13.566Z,2.60
2022-12-03T09:59:40.755Z,1.98
2022-12-03T10:02:38.031Z,2.25
2022-12-03T10:05:08.814Z,2.13
2022-12-03T10:07:36.012Z,2.10
2022-12-03T10:10:03.879Z,2.08
2022-12-03T10:12:30.858Z,2.08
2022-12-03T10:15:00.369Z,2.20
2022-12-03T10:17:31.996Z,2.20
2022-12-03T10:19:58.969Z,1.88
2022-12-03T10:22:26.123Z,2.05
2022-12-03T10:25:14.930Z,2.28
2022-12-03T10:27:42.966Z,2.20
2022-12-03T10:30:28.813Z,2.10
2022-12-03T10:32:58.342Z,2.20
2022-12-03T10:35:45.772Z,2.28
2022-12-03T10:38:22.607Z,2.20
2022-12-03T10:41:04.342Z,2.20
2022-12-03T10:43:31.384Z,2.15
2022-12-03T10:46:03.792Z,1.90
2022-12-03T10:48:34.521Z,2.38
2022-12-03T10:51:22.403Z,2.10
2022-12-03T10:53:50.789Z,2.10
2022-12-03T10:56:29.347Z,2.38
2022-12-03T10:58:56.760Z,2.20
2022-12-03T11:01:26.357Z,2.20
2022-12-03T11:03:56.013Z,2.20
2022-12-03T11:06:23.800Z,2.00
2022-12-03T11:08:58.566Z,1.98
2022-12-03T11:11:29.390Z,2.22
2022-12-03T11:14:06.457Z,2.13
2022-12-03T11:16:40.911Z,2.28
2022-12-03T11:19:18.344Z,2.25
2022-12-03T11:22:07.085Z,2.05
2022-12-03T11:24:39.167Z,2.00
2022-12-03T11:27:16.143Z,2.00
2022-12-03T11:33:48.546Z,2.13
2022-12-03T11:52:45.280Z,2.10
2022-12-03T11:59:13.926Z,2.03
2022-12-03T12:04:48.652Z,2.13
2022-12-03T12:07:34.790Z,2.00
2022-12-03T12:10:02.621Z,2.22
2022-12-03T12:12:32.442Z,2.10
2022-12-03T12:15:20.520Z,2.13
2022-12-03T12:17:47.683Z,2.17
2022-12-03T12:20:39.831Z,2.05
2022-12-03T12:28:59.273Z,2.00
2022-12-03T12:37:59.567Z,2.15
2022-12-03T12:40:39.231Z,2.50
2022-12-03T12:43:24.381Z,2.17
2022-12-03T12:46:09.468Z,2.42
2022-12-03T12:49:02.261Z,2.28
2022-12-03T12:51:36.263Z,2.33
2022-12-03T12:54:09.829Z,2.15
2022-12-03T12:56:39.143Z,2.10
2022-12-03T12:59:38.267Z,2.20
2022-12-03T13:05:45.265Z,2.50
2022-12-03T13:12:09.077Z,2.20
2022-12-03T13:17:59.082Z,2.33
2022-12-03T13:20:56.828Z,2.15
2022-12-03T13:23:38.652Z,2.72
2022-12-03T13:29:35.103Z,2.50
2022-12-03T13:32:32.515Z,2.42
2022-12-03T13:35:28.152Z,2.50
2022-12-03T13:37:59.367Z,2.10
2022-12-03T13:40:39.434Z,2.13
2022-12-03T13:43:47.976Z,2.10
2022-12-03T13:46:27.192Z,2.67
2022-12-03T13:52:27.314Z,2.20
2022-12-03T13:59:49.151Z,1.75
2022-12-03T14:15:35.565Z,2.20
2022-12-03T14:18:48.563Z,1.70
2022-12-03T14:24:18.424Z,3.90
2022-12-03T14:26:57.236Z,2.13
2022-12-03T14:33:23.675Z,2.13
2022-12-03T14:36:00.453Z,1.65
2022-12-03T14:38:28.841Z,1.55
2022-12-03T14:41:06.154Z,2.05
2022-12-03T14:43:37.578Z,1.40
2022-12-03T14:46:35.928Z,1.60
2022-12-03T14:53:13.272Z,1.60
2022-12-03T14:56:09.493Z,1.80
2022-12-03T15:02:08.201Z,1.85
2022-12-03T15:10:16.505Z,2.08
2022-12-03T15:12:59.263Z,2.28
2022-12-03T15:15:37.980Z,1.92
2022-12-03T15:18:09.156Z,1.75
2022-12-03T15:20:42.731Z,1.90
2022-12-03T15:23:43.590Z,2.30
2022-12-03T15:26:25.792Z,2.17
2022-12-03T15:28:55.247Z,1.88
2022-12-03T15:34:48.543Z,1.80
2022-12-03T15:40:40.518Z,1.70
2022-12-03T15:49:43.866Z,1.85
2022-12-03T15:52:14.827Z,1.77
2022-12-03T15:58:35.204Z,1.50
2022-12-03T16:04:15.092Z,1.67
2022-12-03T16:06:49.851Z,2.05
2022-12-03T16:10:01.439Z,1.70
2022-12-03T16:12:35.084Z,1.20
2022-12-03T16:19:04.242Z,1.35
2022-12-03T16:22:42.850Z,1.45
2022-12-03T16:28:32.969Z,1.40
2022-12-03T16:37:43.264Z,1.30
2022-12-03T17:15:59.703Z,1.17
2022-12-03T17:31:43.062Z,2.00
2022-12-03T17:50:26.093Z,2.20
2022-12-03T17:59:56.027Z,1.70
2022-12-03T18:02:23.269Z,1.83
2022-12-03T18:04:51.265Z,2.33
2022-12-03T18:13:19.185Z,1.88
2022-12-03T18:15:54.304Z,1.35
2022-12-03T18:18:57.078Z,1.50
2022-12-03T18:37:58.458Z,1.30
2022-12-03T21:03:53.188Z,1.60
2022-12-03T21:06:21.553Z,1.50
2022-12-03T21:08:56.126Z,1.70
2022-12-03T21:11:33.691Z,1.48
2022-12-03T21:14:11.428Z,1.50
2022-12-03T21:19:34.337Z,1.20
2022-12-03T21:22:01.462Z,1.40
2022-12-03T21:24:30.205Z,1.67
2022-12-03T21:27:00.305Z,1.60
2022-12-03T21:29:31.774Z,1.23
2022-12-03T21:31:58.986Z,1.42
2022-12-03T21:34:27.384Z,1.48
2022-12-03T21:37:32.759Z,1.48
2022-12-03T21:40:00.326Z,1.90
2022-12-03T21:42:36.518Z,1.35
2022-12-03T21:45:51.004Z,1.35
2022-12-03T21:48:24.660Z,1.40
2022-12-03T21:51:06.747Z,1.15
2022-12-03T21:53:40.472Z,1.55
2022-12-03T21:56:14.413Z,1.35
2022-12-03T21:58:43.619Z,1.40
2022-12-03T22:01:42.934Z,1.48
2022-12-03T22:04:35.634Z,1.50
2022-12-03T22:07:50.322Z,1.40
2022-12-03T22:10:47.430Z,1.50
2022-12-03T22:16:23.079Z,1.60
2022-12-03T22:19:24.964Z,1.92
2022-12-03T22:22:09.980Z,1.90
2022-12-03T22:24:52.888Z,1.88
2022-12-03T22:27:58.709Z,1.80
2022-12-03T22:30:30.107Z,1.95
2022-12-03T22:39:10.608Z,1.80
2022-12-03T22:45:11.726Z,1.90
2022-12-03T22:47:44.409Z,1.77
2022-12-03T22:50:11.629Z,1.73
2022-12-03T22:52:41.934Z,1.80
2022-12-03T22:56:04.687Z,1.90
2022-12-03T23:04:24.483Z,2.00
2022-12-03T23:09:54.423Z,1.67
2022-12-03T23:19:14.619Z,1.38
2022-12-03T23:22:09.103Z,1.35
2022-12-03T23:58:37.656Z,0.98
